Time;durP1;ratioP1;P1;durP2;ratioP2;P2;SDS_P1;SDS_P2;PMS_P1;PMS_P2;Temp;Humidity;BMP_temperature;BMP_pressure;BME280_temperature;BME280_humidity;BME280_pressure;Samples;Min_cycle;Max_cycle;Signal;HPM_P1;HPM_P2
2022/04/22 00:02:44;;;;;;;3.33;2.15;;;;;;;8.35;100.00;100992.41;6225731;28;20053;-69
2022/04/22 00:05:46;;;;;;;5.90;2.97;;;;;;;8.30;100.00;100974.25;6226610;28;20046;-68
2022/04/22 00:08:47;;;;;;;3.85;2.50;;;;;;;8.29;100.00;100983.03;6226290;28;20049;-68
2022/04/22 00:11:48;;;;;;;3.10;2.13;;;;;;;8.31;100.00;100981.22;6225370;28;20045;-68
2022/04/22 00:14:50;;;;;;;3.10;2.00;;;;;;;8.30;100.00;100973.41;6226490;28;20076;-68
2022/04/22 00:17:52;;;;;;;3.42;2.00;;;;;;;8.32;100.00;100969.00;6226212;28;20058;-68
2022/04/22 00:20:54;;;;;;;3.55;2.10;;;;;;;8.31;100.00;100965.53;6225470;28;20054;-68
2022/04/22 00:23:55;;;;;;;5.97;2.58;;;;;;;8.29;100.00;100966.47;6225811;28;20053;-68
2022/04/22 00:26:57;;;;;;;5.32;2.60;;;;;;;8.25;100.00;100965.75;6226138;28;20057;-70
2022/04/22 00:29:58;;;;;;;3.80;2.53;;;;;;;8.27;100.00;100970.94;6225358;28;20050;-68
2022/04/22 00:33:00;;;;;;;4.38;2.40;;;;;;;8.24;100.00;100969.28;6225375;28;20053;-68
2022/04/22 00:36:02;;;;;;;8.18;2.72;;;;;;;8.21;100.00;100973.78;6225529;28;20061;-68
2022/04/22 00:39:03;;;;;;;4.90;2.80;;;;;;;8.23;100.00;100970.22;6225937;28;20057;-68
2022/04/22 00:42:10;;;;;;;8.48;2.55;;;;;;;8.30;100.00;100962.94;6224422;28;20046;-71
2022/04/22 00:45:11;;;;;;;7.30;3.13;;;;;;;8.31;100.00;100957.66;6225708;28;20056;-68
2022/04/22 00:48:15;;;;;;;4.88;2.83;;;;;;;8.29;100.00;100964.72;6225508;28;20045;-70
2022/04/22 00:51:18;;;;;;;5.38;2.53;;;;;;;8.31;100.00;100959.41;6224545;28;20497;-69
2022/04/22 00:54:20;;;;;;;7.57;2.83;;;;;;;8.30;100.00;100942.00;6225396;28;20053;-68
2022/04/22 00:57:21;;;;;;;5.32;3.10;;;;;;;8.32;100.00;100943.66;6225139;28;20050;-68
2022/04/22 01:00:23;;;;;;;8.02;3.45;;;;;;;8.36;100.00;100945.25;6224514;28;20057;-68
2022/04/22 01:03:25;;;;;;;5.80;2.63;;;;;;;8.38;100.00;100925.09;6223818;28;20053;-68
2022/04/22 01:09:51;;;;;;;3.75;2.25;;;;;;;8.38;100.00;100925.09;6224598;28;20050;-68
2022/04/22 01:12:52;;;;;;;4.75;2.75;;;;;;;8.37;100.00;100933.03;6224776;28;20049;-68
2022/04/22 01:15:54;;;;;;;5.35;2.63;;;;;;;8.40;100.00;100922.41;6224773;28;20050;-68
2022/04/22 01:18:56;;;;;;;5.40;2.60;;;;;;;8.43;100.00;100919.66;6225010;28;20050;-68
2022/04/22 01:21:59;;;;;;;4.35;1.95;;;;;;;8.49;100.00;100918.56;6223800;28;20050;-68
2022/04/22 01:25:03;;;;;;;9.50;3.22;;;;;;;8.49;100.00;100913.31;6224586;28;20139;-68
2022/04/22 01:28:05;;;;;;;3.90;2.10;;;;;;;8.50;100.00;100912.41;6224739;28;20140;-68
2022/04/22 01:31:07;;;;;;;6.25;2.47;;;;;;;8.53;100.00;100914.88;6223858;28;20058;-68
2022/04/22 01:34:09;;;;;;;9.32;2.15;;;;;;;8.57;100.00;100919.09;6224560;28;20061;-67
2022/04/22 01:37:11;;;;;;;5.97;2.20;;;;;;;8.52;100.00;100906.19;6224123;28;20469;-68
2022/04/22 01:40:13;;;;;;;4.90;2.67;;;;;;;8.50;100.00;100899.31;6223994;28;20046;-68
2022/04/22 01:43:15;;;;;;;4.97;2.50;;;;;;;8.49;100.00;100910.69;6223756;28;20053;-68
2022/04/22 01:46:16;;;;;;;4.75;2.72;;;;;;;8.49;100.00;100898.44;6223637;28;20050;-69
2022/04/22 01:49:17;;;;;;;4.80;2.78;;;;;;;8.48;100.00;100899.38;6223900;28;20054;-68
2022/04/22 01:52:20;;;;;;;6.40;2.58;;;;;;;8.48;100.00;100901.97;6223124;28;20050;-68
2022/04/22 01:55:22;;;;;;;8.65;2.50;;;;;;;8.47;100.00;100900.28;6215859;28;20053;-68
2022/04/22 01:58:23;;;;;;;3.63;2.08;;;;;;;8.45;100.00;100904.75;6223993;28;20053;-69
2022/04/22 02:01:25;;;;;;;3.65;2.47;;;;;;;8.45;100.00;100904.75;6222881;28;20053;-68
2022/04/22 02:04:26;;;;;;;3.72;2.20;;;;;;;8.43;100.00;100900.47;6223832;28;20052;-68
2022/04/22 02:07:29;;;;;;;3.92;2.35;;;;;;;8.38;100.00;100893.66;6223266;28;20417;-69
2022/04/22 02:10:30;;;;;;;5.03;1.92;;;;;;;8.39;100.00;100887.50;6222904;28;20516;-68
2022/04/22 02:13:35;;;;;;;4.43;2.08;;;;;;;8.39;100.00;100879.66;6223122;28;20057;-68
2022/04/22 02:16:37;;;;;;;4.78;2.33;;;;;;;8.37;100.00;100880.66;6224031;28;20046;-68
2022/04/22 02:19:40;;;;;;;7.97;2.55;;;;;;;8.38;100.00;100879.72;6223211;28;20057;-68
2022/04/22 02:22:42;;;;;;;5.30;1.92;;;;;;;8.37;100.00;100875.41;6222702;28;20049;-68
2022/04/22 02:25:43;;;;;;;4.03;2.30;;;;;;;8.35;100.00;100885.06;6223117;28;20050;-68
2022/04/22 02:28:44;;;;;;;5.90;1.83;;;;;;;8.36;100.00;100878.91;6222962;28;20068;-68
2022/04/22 02:31:46;;;;;;;3.92;1.60;;;;;;;8.29;100.00;100883.53;6222484;28;20084;-68
2022/04/22 02:34:47;;;;;;;4.07;1.88;;;;;;;8.29;100.00;100880.94;6223187;28;20050;-68
2022/04/22 02:37:51;;;;;;;5.28;1.67;;;;;;;8.32;100.00;100872.97;6222450;28;20054;-70
2022/04/22 02:47:30;;;;;;;3.65;2.03;;;;;;;8.21;100.00;100864.69;6222755;28;20053;-70
2022/04/22 02:50:32;;;;;;;4.65;1.73;;;;;;;8.23;100.00;100857.63;6222182;28;20054;-70
2022/04/22 02:53:34;;;;;;;1.98;1.30;;;;;;;8.20;100.00;100851.66;6222511;28;20053;-70
2022/04/22 02:56:36;;;;;;;2.38;1.45;;;;;;;8.14;100.00;100840.53;6222914;28;20046;-70
2022/04/22 02:59:39;;;;;;;2.55;1.30;;;;;;;8.12;100.00;100857.22;6222234;28;20053;-70
2022/04/22 03:02:42;;;;;;;2.63;1.10;;;;;;;8.14;100.00;100853.63;6221958;28;20438;-70
2022/04/22 03:05:43;;;;;;;2.88;1.30;;;;;;;8.11;100.00;100858.97;6222462;28;20046;-70
2022/04/22 03:08:46;;;;;;;2.00;1.30;;;;;;;8.11;100.00;100847.66;6222388;28;20065;-70
2022/04/22 03:11:47;;;;;;;1.23;0.77;;;;;;;8.07;100.00;100843.47;6221623;28;20057;-70
2022/04/22 03:14:49;;;;;;;2.78;1.50;;;;;;;8.06;100.00;100849.63;6222293;28;20054;-70
2022/04/22 03:17:51;;;;;;;6.63;0.98;;;;;;;8.03;100.00;100841.88;6222341;28;20501;-70
2022/04/22 03:20:52;;;;;;;4.97;1.05;;;;;;;8.00;100.00;100848.13;6221324;28;20054;-69
2022/04/22 03:23:56;;;;;;;4.65;1.17;;;;;;;7.96;100.00;100848.31;6222200;28;20105;-70
2022/04/22 03:26:57;;;;;;;5.53;1.55;;;;;;;7.98;100.00;100836.84;6221131;28;20073;-69
2022/04/22 03:29:58;;;;;;;1.30;1.00;;;;;;;7.92;100.00;100849.34;6221839;28;20050;-70
2022/04/22 03:32:59;;;;;;;1.80;1.33;;;;;;;7.91;100.00;100845.88;6221677;28;20422;-70
2022/04/22 03:36:01;;;;;;;4.53;1.48;;;;;;;7.86;100.00;100838.22;6222070;28;20046;-70
2022/04/22 03:39:04;;;;;;;2.95;1.45;;;;;;;7.80;100.00;100829.75;6222132;28;20060;-70
2022/04/22 03:42:06;;;;;;;2.05;1.00;;;;;;;7.78;100.00;100836.81;6221199;28;20046;-70
2022/04/22 03:45:08;;;;;;;9.75;1.33;;;;;;;7.76;100.00;100834.25;6221500;28;20054;-70
2022/04/22 03:48:10;;;;;;;3.28;2.20;;;;;;;7.73;100.00;100836.16;6221364;28;20045;-70
2022/04/22 03:51:11;;;;;;;2.05;1.20;;;;;;;7.71;100.00;100832.72;6219473;28;20053;-70
2022/04/22 03:54:16;;;;;;;3.75;1.30;;;;;;;7.71;100.00;100832.72;6220006;28;20042;-69
2022/04/22 04:00:36;;;;;;;0.98;0.77;;;;;;;7.48;100.00;100844.09;6218339;28;20050;-69
2022/04/22 04:03:38;;;;;;;3.65;0.77;;;;;;;7.43;100.00;100841.66;6221896;28;20157;-70
2022/04/22 04:06:39;;;;;;;2.55;1.05;;;;;;;7.39;100.00;100837.47;6221619;28;20050;-69
2022/04/22 04:16:20;;;;;;;2.28;1.40;;;;;;;7.28;100.00;100831.81;6221749;28;20506;-70
2022/04/22 04:26:00;;;;;;;1.83;1.08;;;;;;;7.19;100.00;100826.94;6221404;28;20425;-70
2022/04/22 04:29:02;;;;;;;3.40;1.08;;;;;;;7.09;100.00;100826.44;6221547;28;20132;-69
2022/04/22 04:32:04;;;;;;;1.65;1.10;;;;;;;7.09;100.00;100832.50;6220280;28;20058;-70
2022/04/22 04:35:06;;;;;;;1.10;0.70;;;;;;;7.02;100.00;100828.41;6219601;28;20048;-70
2022/04/22 04:38:08;;;;;;;1.42;0.88;;;;;;;7.02;100.00;100831.03;6222208;28;20050;-69
2022/04/22 04:41:13;;;;;;;1.58;0.88;;;;;;;7.02;100.00;100828.41;6223394;28;20065;-69
2022/04/22 04:44:14;;;;;;;7.90;1.15;;;;;;;7.06;100.00;100829.16;6223978;28;20046;-70
2022/04/22 04:47:15;;;;;;;2.60;0.77;;;;;;;7.04;100.00;100823.13;6225460;28;20497;-70
2022/04/22 04:50:17;;;;;;;0.90;0.80;;;;;;;7.01;100.00;100828.47;6224992;28;20058;-68
2022/04/22 04:53:20;;;;;;;1.45;0.90;;;;;;;7.00;100.00;100827.63;6225556;28;20052;-69
2022/04/22 04:56:22;;;;;;;1.60;0.70;;;;;;;6.90;100.00;100830.63;6225305;28;20413;-72
2022/04/22 04:59:24;;;;;;;4.55;1.30;;;;;;;6.83;100.00;100825.63;6225396;28;20053;-71
2022/04/22 05:02:25;;;;;;;1.38;0.80;;;;;;;6.81;100.00;100826.56;6224545;28;20050;-69
2022/04/22 05:05:27;;;;;;;6.68;1.40;;;;;;;6.75;100.00;100825.06;6225073;28;20050;-69
2022/04/22 05:08:30;;;;;;;4.05;1.02;;;;;;;6.77;100.00;100825.88;6225385;28;20045;-69
2022/04/22 05:11:32;;;;;;;6.20;1.20;;;;;;;6.80;100.00;100822.28;6224160;28;20424;-69
2022/04/22 05:14:35;;;;;;;2.75;0.80;;;;;;;6.88;100.00;100827.22;6225021;28;20054;-69
2022/04/22 05:17:36;;;;;;;2.08;0.75;;;;;;;6.95;100.00;100839.13;6224800;28;20045;-69
2022/04/22 05:20:38;;;;;;;4.25;1.20;;;;;;;6.98;100.00;100837.25;6224017;28;20533;-69
2022/04/22 05:23:39;;;;;;;6.78;1.55;;;;;;;6.91;100.00;100833.19;6224869;28;20391;-69
2022/04/22 05:26:42;;;;;;;2.20;1.23;;;;;;;6.90;100.00;100833.22;6224743;28;20050;-69
2022/04/22 05:33:03;;;;;;;1.42;0.80;;;;;;;6.95;100.00;100833.91;6224155;28;20509;-69
2022/04/22 05:36:06;;;;;;;3.58;1.33;;;;;;;6.93;100.00;100835.75;6224290;28;20053;-69
2022/04/22 05:39:09;;;;;;;3.75;1.65;;;;;;;6.86;100.00;100840.34;6224548;28;20050;-69
2022/04/22 05:42:12;;;;;;;1.58;1.30;;;;;;;6.84;100.00;100836.94;6223084;28;20575;-68
2022/04/22 05:45:15;;;;;;;5.80;1.30;;;;;;;6.78;100.00;100842.38;6223796;28;20140;-69
2022/04/22 05:48:16;;;;;;;2.65;1.55;;;;;;;6.81;100.00;100842.25;6223192;28;20054;-70
2022/04/22 05:51:17;;;;;;;1.00;0.88;;;;;;;6.74;100.00;100841.63;6222705;28;20050;-69
2022/04/22 05:54:19;;;;;;;3.05;1.65;;;;;;;6.77;100.00;100844.16;6223857;28;20501;-69
2022/04/22 05:57:21;;;;;;;1.80;1.33;;;;;;;6.80;100.00;100846.63;6223728;28;20046;-69
2022/04/22 06:00:24;;;;;;;3.88;1.85;;;;;;;6.84;100.00;100837.78;6223146;28;20239;-69
2022/04/22 06:03:26;;;;;;;1.90;1.10;;;;;;;6.85;100.00;100836.00;6223356;28;20060;-69
2022/04/22 06:06:27;;;;;;;3.28;1.17;;;;;;;6.85;100.00;100836.84;6223653;28;20050;-69
2022/04/22 06:12:48;;;;;;;6.47;1.60;;;;;;;6.92;100.00;100832.28;6222685;28;20049;-69
2022/04/22 06:15:50;;;;;;;1.45;1.05;;;;;;;6.93;100.00;100826.13;6223188;28;20300;-70
2022/04/22 06:18:51;;;;;;;4.50;1.13;;;;;;;6.91;100.00;100824.50;6223410;28;20061;-69
2022/04/22 06:21:52;;;;;;;2.10;1.30;;;;;;;6.93;100.00;100822.69;6222374;28;20536;-69
2022/04/22 06:24:54;;;;;;;1.98;1.38;;;;;;;6.92;100.00;100829.66;6223372;28;20065;-69
2022/04/22 06:27:57;;;;;;;3.72;1.38;;;;;;;6.99;100.00;100825.91;6223111;28;20058;-69
2022/04/22 06:30:59;;;;;;;3.70;1.73;;;;;;;7.09;100.00;100823.81;6222457;28;20050;-69
2022/04/22 06:34:00;;;;;;;1.63;1.08;;;;;;;7.15;100.00;100828.81;6223087;28;20493;-69
2022/04/22 06:37:02;;;;;;;7.57;1.67;;;;;;;7.16;100.00;100825.28;6222748;28;20058;-70
2022/04/22 06:46:47;;;;;;;7.70;2.28;;;;;;;7.28;100.00;100826.59;6222102;28;20042;-70
2022/04/22 06:49:48;;;;;;;2.55;1.45;;;;;;;7.39;100.00;100819.16;6219761;28;20490;-69
2022/04/22 06:52:50;;;;;;;2.83;1.50;;;;;;;7.49;100.00;100819.66;6222230;28;20053;-69
2022/04/22 06:55:53;;;;;;;4.95;1.25;;;;;;;7.71;100.00;100810.03;6222577;28;20414;-70
2022/04/22 06:58:56;;;;;;;5.63;1.75;;;;;;;7.87;100.00;100798.03;6222650;28;20081;-69
2022/04/22 07:01:58;;;;;;;5.10;1.50;;;;;;;7.99;100.00;100806.28;6221472;28;20069;-70
2022/04/22 07:05:00;;;;;;;3.33;1.50;;;;;;;8.11;100.00;100793.53;6222572;28;20049;-69
2022/04/22 07:08:02;;;;;;;2.70;1.70;;;;;;;8.16;100.00;100800.34;6222394;28;20057;-69
2022/04/22 07:11:06;;;;;;;3.00;1.30;;;;;;;8.15;100.00;100794.28;6221799;28;20156;-70
2022/04/22 07:14:09;;;;;;;2.88;1.55;;;;;;;8.19;100.00;100800.22;6222294;28;20057;-69
2022/04/22 07:17:12;;;;;;;5.22;1.95;;;;;;;8.31;100.00;100808.41;6222403;28;20046;-69
2022/04/22 07:20:15;;;;;;;2.70;1.30;;;;;;;8.31;100.00;100815.41;6221808;28;20057;-69
2022/04/22 07:23:16;;;;;;;3.13;1.52;;;;;;;8.44;100.00;100802.66;6222005;28;20050;-69
2022/04/22 07:26:20;;;;;;;3.15;1.35;;;;;;;8.48;100.00;100805.09;6222067;28;20073;-70
2022/04/22 07:29:25;;;;;;;2.53;1.95;;;;;;;8.57;100.00;100801.22;6222320;28;20060;-69
2022/04/22 07:32:27;;;;;;;2.53;1.40;;;;;;;8.66;100.00;100803.41;6221416;28;20057;-70
2022/04/22 07:35:28;;;;;;;7.28;1.50;;;;;;;8.64;100.00;100798.25;6222198;28;20090;-70
2022/04/22 07:38:30;;;;;;;2.05;1.45;;;;;;;8.58;100.00;100795.94;6221467;28;20057;-70
2022/04/22 07:41:36;;;;;;;5.45;1.70;;;;;;;8.56;100.00;100799.53;6220420;28;20053;-69
2022/04/22 07:47:58;;;;;;;3.55;1.48;;;;;;;8.78;100.00;100802.88;6222195;28;20045;-70
2022/04/22 07:50:59;;;;;;;3.95;1.70;;;;;;;8.92;100.00;100801.41;6220122;28;20441;-70
2022/04/22 07:54:01;;;;;;;4.40;1.52;;;;;;;9.05;100.00;100800.78;6220857;28;20045;-70
2022/04/22 07:57:02;;;;;;;4.38;1.52;;;;;;;9.12;100.00;100796.09;6221275;28;20521;-69
2022/04/22 08:00:07;;;;;;;1.35;1.00;;;;;;;9.32;100.00;100801.25;6220735;28;20050;-70
2022/04/22 08:03:09;;;;;;;3.22;1.50;;;;;;;9.34;100.00;100780.19;6219728;28;20057;-70
2022/04/22 08:06:11;;;;;;;4.53;1.50;;;;;;;9.37;100.00;100793.19;6217042;28;20132;-70
2022/04/22 08:09:12;;;;;;;3.42;1.83;;;;;;;9.23;100.00;100790.38;6216704;28;20081;-70
2022/04/22 08:12:14;;;;;;;1.60;1.20;;;;;;;8.95;100.00;100789.03;6219019;28;20045;-70
2022/04/22 08:15:19;;;;;;;2.45;1.60;;;;;;;8.95;100.00;100785.53;6225553;28;20488;-70
2022/04/22 08:18:20;;;;;;;2.90;1.38;;;;;;;8.80;100.00;100776.59;6222829;28;20425;-70
2022/04/22 08:21:21;;;;;;;2.67;1.48;;;;;;;8.82;100.00;100785.25;6224992;28;20097;-70
2022/04/22 08:24:23;;;;;;;7.75;1.58;;;;;;;8.81;100.00;100784.41;6226246;28;20061;-70
2022/04/22 08:27:24;;;;;;;3.15;1.60;;;;;;;8.83;100.00;100779.09;6225806;28;20049;-70
2022/04/22 08:30:28;;;;;;;7.90;1.60;;;;;;;8.96;100.00;100777.63;6225236;28;20054;-70
2022/04/22 08:33:29;;;;;;;2.92;1.52;;;;;;;9.01;100.00;100780.88;6225745;28;20053;-71
2022/04/22 08:36:31;;;;;;;1.77;1.05;;;;;;;9.08;100.00;100782.28;6225915;28;20057;-70
2022/04/22 08:39:32;;;;;;;2.45;1.30;;;;;;;9.15;100.00;100791.56;6225542;28;20050;-70
2022/04/22 08:42:35;;;;;;;2.47;1.52;;;;;;;9.28;100.00;100786.59;6225298;28;20493;-70
2022/04/22 08:45:38;;;;;;;3.67;1.63;;;;;;;9.44;100.00;100791.09;6225493;28;20547;-70
2022/04/22 08:52:01;;;;;;;4.32;1.38;;;;;;;9.71;100.00;100807.28;6223307;28;20477;-69
2022/04/22 08:55:06;;;;;;;3.75;1.08;;;;;;;9.80;100.00;100796.34;6225313;28;20128;-70
2022/04/22 08:58:08;;;;;;;2.35;1.38;;;;;;;9.84;98.74;100787.38;6224955;28;20060;-70
2022/04/22 09:01:12;;;;;;;7.82;1.85;;;;;;;9.96;100.00;100781.53;6223457;28;20054;-70
2022/04/22 09:04:13;;;;;;;5.45;1.60;;;;;;;9.97;98.88;100785.84;6224689;28;20058;-69
2022/04/22 09:07:18;;;;;;;4.13;1.58;;;;;;;10.01;97.71;100787.41;6224670;28;20050;-70
2022/04/22 09:10:20;;;;;;;3.15;1.52;;;;;;;10.26;97.78;100791.44;6215246;28;20136;-70
2022/04/22 09:13:25;;;;;;;3.08;1.45;;;;;;;10.40;99.07;100776.69;6216518;28;20046;-70
2022/04/22 09:16:28;;;;;;;3.45;1.90;;;;;;;10.44;95.54;100777.34;6223529;28;20073;-68
2022/04/22 09:19:35;;;;;;;1.42;1.23;;;;;;;10.47;95.91;100763.22;6224055;28;20053;-68
2022/04/22 09:22:36;;;;;;;5.10;1.42;;;;;;;10.72;94.59;100765.38;6223096;28;20054;-68
2022/04/22 09:25:37;;;;;;;1.38;1.10;;;;;;;10.90;93.45;100769.63;6218798;28;20069;-68
2022/04/22 09:28:40;;;;;;;3.20;2.33;;;;;;;11.10;91.00;100758.88;6222157;28;20057;-68
2022/04/22 09:31:51;;;;;;;2.45;1.35;;;;;;;11.23;90.36;100760.84;6222729;28;20399;-69
2022/04/22 09:34:56;;;;;;;4.63;1.45;;;;;;;11.31;88.99;100743.69;6224283;28;20537;-68
2022/04/22 09:44:36;;;;;;;4.25;1.88;;;;;;;11.62;88.49;100726.13;6224123;28;20054;-68
2022/04/22 09:47:40;;;;;;;2.95;1.75;;;;;;;11.69;89.60;100715.16;6224308;28;20053;-68
2022/04/22 09:50:44;;;;;;;2.10;1.42;;;;;;;11.86;90.52;100716.00;6222797;28;20056;-70
2022/04/22 09:53:47;;;;;;;4.85;1.70;;;;;;;11.93;88.55;100719.94;6219270;28;20053;-68
2022/04/22 09:56:55;;;;;;;6.43;1.90;;;;;;;11.97;88.57;100718.84;6223612;28;20417;-68
2022/04/22 09:59:56;;;;;;;3.10;1.45;;;;;;;12.06;86.20;100717.44;6223529;28;20065;-68
2022/04/22 10:03:00;;;;;;;2.33;1.52;;;;;;;12.12;84.96;100710.00;6223330;28;20050;-68
2022/04/22 10:06:02;;;;;;;3.17;1.63;;;;;;;12.12;87.06;100717.91;6223678;28;20390;-68
2022/04/22 10:09:04;;;;;;;3.58;1.70;;;;;;;12.08;86.30;100702.38;6221890;28;20509;-68
2022/04/22 10:12:12;;;;;;;2.30;1.90;;;;;;;12.13;86.40;100703.81;6222584;28;20081;-68
2022/04/22 10:15:14;;;;;;;3.97;1.95;;;;;;;12.50;86.30;100696.28;6222114;28;20057;-68
2022/04/22 10:18:17;;;;;;;3.05;1.73;;;;;;;12.73;86.45;100696.63;6220674;28;20073;-68
2022/04/22 10:21:21;;;;;;;1.23;1.13;;;;;;;12.85;84.21;100701.13;6222215;28;20050;-68
2022/04/22 10:24:23;;;;;;;2.17;1.30;;;;;;;13.01;86.36;100695.72;6221075;28;20501;-68
2022/04/22 10:27:25;;;;;;;2.00;1.55;;;;;;;13.16;86.80;100707.91;6222190;28;20046;-68
2022/04/22 10:30:28;;;;;;;2.13;1.77;;;;;;;13.35;88.84;100697.91;6222197;28;20498;-68
2022/04/22 10:33:40;;;;;;;2.80;1.67;;;;;;;13.54;85.51;100701.97;6219668;28;20054;-68
2022/04/22 10:36:43;;;;;;;3.38;2.15;;;;;;;13.62;84.69;100697.84;6219440;28;20057;-68
2022/04/22 10:39:50;;;;;;;4.97;1.90;;;;;;;13.84;86.07;100701.69;6219393;28;20431;-68
2022/04/22 10:42:52;;;;;;;3.70;2.08;;;;;;;14.22;81.73;100699.09;6221422;28;20053;-68
2022/04/22 10:49:16;;;;;;;6.75;2.25;;;;;;;14.43;83.32;100702.84;6220701;28;20480;-71
2022/04/22 10:52:19;;;;;;;2.42;1.55;;;;;;;14.61;83.47;100697.25;6219566;28;20131;-71
2022/04/22 10:55:20;;;;;;;3.95;2.17;;;;;;;14.79;81.50;100693.31;6221855;28;20046;-70
2022/04/22 10:58:25;;;;;;;5.20;2.42;;;;;;;14.84;82.74;100690.31;6221491;28;20409;-71
2022/04/22 11:01:31;;;;;;;4.45;2.33;;;;;;;15.00;80.11;100688.28;6218564;28;20058;-71
2022/04/22 11:04:36;;;;;;;4.55;2.08;;;;;;;15.16;79.21;100686.16;6221720;28;20169;-70
2022/04/22 11:07:55;;;;;;;4.95;2.13;;;;;;;15.19;78.31;100690.41;6219662;28;20045;-71
2022/04/22 11:11:02;;;;;;;4.63;2.08;;;;;;;15.42;80.26;100692.19;6218646;28;20512;-68
2022/04/22 11:14:17;;;;;;;4.78;2.75;;;;;;;15.51;77.54;100673.94;6221504;28;20048;-71
2022/04/22 11:17:33;;;;;;;3.50;1.88;;;;;;;15.56;76.08;100680.56;6221113;28;20494;-71
2022/04/22 11:20:37;;;;;;;2.60;1.77;;;;;;;15.63;76.53;100680.97;6219417;28;20420;-72
2022/04/22 11:23:40;;;;;;;4.75;2.08;;;;;;;15.94;77.27;100683.00;6221775;28;20052;-71
2022/04/22 11:26:42;;;;;;;5.35;2.17;;;;;;;16.26;73.72;100682.31;6220408;28;20128;-71
2022/04/22 11:29:44;;;;;;;5.13;2.42;;;;;;;16.20;73.86;100675.66;6221264;28;20056;-71
2022/04/22 11:32:48;;;;;;;2.85;1.70;;;;;;;16.38;73.81;100676.03;6221003;28;20424;-71
2022/04/22 11:35:53;;;;;;;4.95;2.35;;;;;;;16.98;68.46;100676.56;6221603;28;20054;-69
2022/04/22 11:38:56;;;;;;;4.00;2.22;;;;;;;17.39;68.63;100659.88;6221766;28;20518;-69
2022/04/22 11:41:58;;;;;;;2.92;2.00;;;;;;;17.63;64.62;100667.66;6218330;28;20047;-69
2022/04/22 11:45:05;;;;;;;4.45;1.92;;;;;;;17.58;66.48;100666.34;6218364;28;20137;-70
2022/04/22 11:48:10;;;;;;;3.40;1.70;;;;;;;17.80;65.28;100665.38;6222293;28;20057;-70
2022/04/22 11:51:13;;;;;;;3.90;1.92;;;;;;;17.95;64.25;100656.97;6225710;28;20054;-70
2022/04/22 11:54:22;;;;;;;3.65;1.42;;;;;;;17.88;64.47;100654.94;6224056;28;20049;-69
2022/04/22 11:57:23;;;;;;;3.58;1.80;;;;;;;17.43;68.01;100658.66;6217107;28;20057;-69
2022/04/22 12:08:00;;;;;;;2.90;2.15;;;;;;;16.96;67.80;100650.16;6224370;28;20057;-69
2022/04/22 12:10:27;;;;;;;5.05;1.83;;;;;;;17.11;68.94;100637.44;6215058;28;20050;-69
2022/04/22 12:13:29;;;;;;;3.70;2.35;;;;;;;17.41;65.77;100644.69;6226255;28;20057;-69
2022/04/22 12:16:32;;;;;;;2.42;1.75;;;;;;;17.34;66.51;100637.34;6226048;28;20050;-69
2022/04/22 12:19:33;;;;;;;3.08;2.05;;;;;;;16.96;66.67;100636.88;6226215;28;20050;-69
2022/04/22 12:22:36;;;;;;;2.40;1.98;;;;;;;16.58;70.55;100632.03;6225225;28;20057;-69
2022/04/22 12:25:38;;;;;;;3.00;2.00;;;;;;;16.35;70.00;100625.91;6226140;28;20056;-69
2022/04/22 12:28:57;;;;;;;2.90;1.90;;;;;;;16.07;72.14;100621.91;6224644;28;20049;-69
2022/04/22 12:31:59;;;;;;;2.83;1.77;;;;;;;15.92;71.82;100628.41;6225040;28;20414;-69
2022/04/22 12:35:14;;;;;;;8.43;2.42;;;;;;;15.71;71.87;100617.66;6221697;28;20054;-69
2022/04/22 12:38:17;;;;;;;7.85;2.33;;;;;;;15.79;74.51;100617.91;6221221;28;20508;-69
2022/04/22 12:41:22;;;;;;;8.43;1.80;;;;;;;16.47;69.09;100613.44;6218351;28;20054;-69
2022/04/22 12:44:24;;;;;;;3.15;1.77;;;;;;;17.85;65.82;100602.03;6221355;28;20462;-70
2022/04/22 12:54:21;;;;;;;3.10;1.58;;;;;;;19.14;56.58;100589.63;6172762;28;20046;-70
2022/04/22 12:57:24;;;;;;;2.72;1.30;;;;;;;18.89;61.87;100595.50;6222706;28;20050;-70
2022/04/22 13:00:26;;;;;;;2.65;1.40;;;;;;;21.12;51.87;100586.69;6224154;28;20050;-70
2022/04/22 13:03:36;;;;;;;2.22;1.38;;;;;;;20.85;49.50;100591.13;6221522;28;20061;-70
2022/04/22 13:06:39;;;;;;;3.22;1.70;;;;;;;20.01;48.82;100573.47;6224446;28;20052;-71
2022/04/22 13:09:42;;;;;;;4.30;1.80;;;;;;;18.66;51.21;100573.59;6221527;28;20528;-70
2022/04/22 13:12:45;;;;;;;2.13;1.60;;;;;;;18.38;53.35;100570.75;6224381;28;20056;-70
2022/04/22 13:15:46;;;;;;;3.35;1.52;;;;;;;17.71;54.85;100576.59;6224153;28;20498;-70
2022/04/22 13:18:47;;;;;;;2.67;1.35;;;;;;;17.56;55.14;100575.28;6224117;28;20038;-70
2022/04/22 13:21:48;;;;;;;3.97;1.20;;;;;;;17.84;56.91;100573.75;6223656;28;20112;-70
2022/04/22 13:24:51;;;;;;;3.75;1.27;;;;;;;19.05;49.64;100561.19;6223565;28;20046;-69
2022/04/22 13:27:53;;;;;;;2.40;1.30;;;;;;;19.60;49.49;100557.84;6222444;28;20085;-68
2022/04/22 13:30:54;;;;;;;2.83;1.40;;;;;;;20.60;48.47;100562.50;6222128;28;20049;-70
2022/04/22 13:33:56;;;;;;;1.35;0.95;;;;;;;21.48;44.59;100547.38;6224187;28;20425;-70
2022/04/22 13:36:57;;;;;;;1.60;1.00;;;;;;;22.19;43.00;100551.63;6220753;28;20120;-69
2022/04/22 13:40:00;;;;;;;3.28;1.20;;;;;;;23.12;37.51;100535.38;6223149;28;20061;-72
2022/04/22 13:43:01;;;;;;;1.10;1.00;;;;;;;21.97;39.34;100543.16;6220658;28;20046;-72
2022/04/22 13:52:42;;;;;;;2.78;1.15;;;;;;;18.97;47.20;100535.25;6223734;28;20050;-69
2022/04/22 13:55:45;;;;;;;2.72;1.02;;;;;;;18.32;50.26;100528.72;6224190;28;20433;-69
2022/04/22 13:58:46;;;;;;;3.17;1.65;;;;;;;17.81;50.27;100540.34;6224117;28;20053;-69
2022/04/22 14:01:48;;;;;;;1.65;0.82;;;;;;;17.49;49.02;100538.59;6222872;28;20061;-69
2022/04/22 14:04:50;;;;;;;3.00;1.25;;;;;;;18.84;46.44;100532.03;6223333;28;20050;-69
2022/04/22 14:07:52;;;;;;;1.35;0.82;;;;;;;19.37;44.93;100528.03;6223722;28;20046;-69
2022/04/22 14:10:55;;;;;;;0.63;0.60;;;;;;;19.24;44.63;100515.84;6221983;28;20050;-68
2022/04/22 14:13:56;;;;;;;1.52;0.80;;;;;;;18.47;43.99;100522.03;6217129;28;20133;-68
2022/04/22 14:16:58;;;;;;;1.27;1.02;;;;;;;17.61;46.87;100533.19;6222973;28;20533;-68
2022/04/22 14:19:59;;;;;;;1.38;0.70;;;;;;;17.18;48.68;100545.69;6222232;28;20061;-68
2022/04/22 14:23:00;;;;;;;2.28;1.10;;;;;;;16.83;50.59;100542.47;6222075;28;20418;-68
2022/04/22 14:26:03;;;;;;;1.25;1.08;;;;;;;16.59;51.65;100540.84;6223370;28;20053;-68
2022/04/22 14:29:05;;;;;;;1.95;1.10;;;;;;;16.35;51.21;100546.34;6223116;28;20053;-68
2022/04/22 14:32:09;;;;;;;1.40;1.00;;;;;;;16.15;53.26;100536.47;6221825;28;20111;-70
2022/04/22 14:35:11;;;;;;;2.30;1.00;;;;;;;15.99;53.72;100544.81;6222903;28;20175;-70
2022/04/22 14:38:12;;;;;;;0.80;0.80;;;;;;;15.90;52.64;100551.69;6222716;28;20046;-70
2022/04/22 14:41:17;;;;;;;1.67;1.00;;;;;;;15.78;51.90;100563.22;6216821;28;20053;-71
2022/04/22 14:44:18;;;;;;;1.17;0.90;;;;;;;15.65;53.75;100557.19;6222788;28;20244;-70
2022/04/22 14:47:20;;;;;;;3.80;0.90;;;;;;;15.64;52.83;100558.16;6221769;28;20049;-71
2022/04/22 14:50:21;;;;;;;3.22;0.80;;;;;;;15.63;53.56;100546.69;6212148;28;20050;-70
2022/04/22 14:53:23;;;;;;;1.83;0.90;;;;;;;15.73;53.17;100550.34;6217973;28;20054;-70
2022/04/22 14:56:27;;;;;;;0.70;0.68;;;;;;;16.15;52.04;100549.72;6221577;28;20513;-68
2022/04/22 14:59:28;;;;;;;1.80;0.75;;;;;;;17.13;50.21;100558.50;6221253;28;20065;-69
2022/04/22 15:02:29;;;;;;;1.42;0.93;;;;;;;17.34;48.10;100547.88;6221082;28;20101;-69
2022/04/22 15:05:31;;;;;;;1.58;1.08;;;;;;;16.92;51.27;100550.50;6217788;28;20046;-68
2022/04/22 15:08:32;;;;;;;2.05;1.02;;;;;;;16.62;51.24;100551.22;6221856;28;20461;-69
2022/04/22 15:11:35;;;;;;;1.77;1.00;;;;;;;16.39;53.94;100553.03;6221618;28;20139;-68
2022/04/22 15:14:36;;;;;;;1.13;0.93;;;;;;;16.31;53.53;100547.53;6220945;28;20049;-68
2022/04/22 15:24:17;;;;;;;3.10;1.85;;;;;;;15.55;56.54;100558.84;6224581;28;20404;-77
2022/04/22 15:27:20;;;;;;;1.98;0.93;;;;;;;15.47;57.96;100554.97;6223580;28;20061;-77
2022/04/22 15:31:00;;;;;;;2.33;1.40;;;;;;;15.39;58.01;100564.47;6221142;28;20050;-70
2022/04/22 15:34:02;;;;;;;1.92;1.00;;;;;;;15.47;58.98;100562.91;6221852;28;20054;-70